createdAt,value
2023-11-25T00:01:06.558Z,5.87
2023-11-25T00:03:34.781Z,6.00
2023-11-25T00:06:02.863Z,4.97
2023-11-25T00:08:32.712Z,5.73
2023-11-25T00:11:00.967Z,6.20
2023-11-25T00:13:29.389Z,4.57
2023-11-25T00:15:57.489Z,7.87
2023-11-25T00:18:25.629Z,6.20
2023-11-25T00:20:53.653Z,4.27
2023-11-25T00:23:22.762Z,4.77
2023-11-25T00:25:54.408Z,6.67
2023-11-25T00:28:22.434Z,7.13
2023-11-25T00:30:50.612Z,6.50
2023-11-25T00:33:19.648Z,4.50
2023-11-25T00:35:49.243Z,7.93
2023-11-25T00:38:17.256Z,6.17
2023-11-25T00:40:45.648Z,5.00
2023-11-25T00:43:15.159Z,4.67
2023-11-25T00:45:43.488Z,4.87
2023-11-25T00:48:11.694Z,3.40
2023-11-25T00:50:40.119Z,5.53
2023-11-25T00:53:08.998Z,6.40
2023-11-25T00:55:37.213Z,3.90
2023-11-25T00:58:07.417Z,4.43
2023-11-25T01:00:37.115Z,2.90
2023-11-25T01:03:05.592Z,8.23
2023-11-25T01:05:33.817Z,4.23
2023-11-25T01:08:02.071Z,3.57
2023-11-25T01:10:30.375Z,3.10
2023-11-25T01:13:01.677Z,4.30
2023-11-25T01:15:29.482Z,3.00
2023-11-25T01:17:59.686Z,4.80
2023-11-25T01:20:28.271Z,2.53
2023-11-25T01:22:56.468Z,2.43
2023-11-25T01:25:24.811Z,3.93
2023-11-25T01:27:55.218Z,2.73
2023-11-25T01:30:23.343Z,4.33
2023-11-25T01:32:51.571Z,2.30
2023-11-25T01:35:21.119Z,2.30
2023-11-25T01:37:50.482Z,2.63
2023-11-25T01:40:18.641Z,4.70
2023-11-25T01:42:47.349Z,3.80
2023-11-25T01:45:15.525Z,3.90
2023-11-25T01:47:44.042Z,3.40
2023-11-25T01:50:12.714Z,4.20
2023-11-25T01:52:42.241Z,7.13
2023-11-25T01:55:11.204Z,3.20
2023-11-25T01:57:39.263Z,2.23
2023-11-25T02:00:09.550Z,2.33
2023-11-25T02:02:38.416Z,2.87
2023-11-25T02:05:07.302Z,3.70
2023-11-25T02:07:35.356Z,4.60
2023-11-25T02:10:06.473Z,3.70
2023-11-25T02:12:36.067Z,2.13
2023-11-25T02:15:05.517Z,4.50
2023-11-25T02:17:33.586Z,2.07
2023-11-25T02:20:04.361Z,4.33
2023-11-25T02:22:35.659Z,2.63
2023-11-25T02:25:05.420Z,5.27
2023-11-25T02:27:35.900Z,2.17
2023-11-25T02:30:07.276Z,1.60
2023-11-25T02:32:35.955Z,1.47
2023-11-25T02:35:04.225Z,1.87
2023-11-25T02:37:32.623Z,9.10
2023-11-25T02:40:00.988Z,3.87
2023-11-25T02:42:35.779Z,1.93
2023-11-25T02:45:04.349Z,1.50
2023-11-25T02:47:32.595Z,1.87
2023-11-25T02:50:00.837Z,1.43
2023-11-25T02:52:29.317Z,1.63
2023-11-25T02:54:57.183Z,1.70
2023-11-25T02:57:26.249Z,3.50
2023-11-25T02:59:59.344Z,3.33
2023-11-25T03:02:28.634Z,2.30
2023-11-25T03:04:56.816Z,1.53
2023-11-25T03:07:25.202Z,2.20
2023-11-25T03:09:53.207Z,2.20
2023-11-25T03:12:21.656Z,1.97
2023-11-25T03:14:49.932Z,3.10
2023-11-25T03:17:19.375Z,1.83
2023-11-25T03:19:47.615Z,2.70
2023-11-25T03:22:15.675Z,1.63
2023-11-25T03:24:44.860Z,1.87
2023-11-25T03:27:14.578Z,4.83
2023-11-25T03:29:42.525Z,3.03
2023-11-25T03:32:10.800Z,2.20
2023-11-25T03:34:40.224Z,1.73
2023-11-25T03:37:09.726Z,1.20
2023-11-25T03:39:38.178Z,2.80
2023-11-25T03:42:06.795Z,2.00
2023-11-25T03:44:35.244Z,1.77
2023-11-25T03:47:04.684Z,1.53
2023-11-25T03:49:35.936Z,2.83
2023-11-25T03:52:07.053Z,1.77
2023-11-25T03:54:35.109Z,3.83
2023-11-25T03:57:02.912Z,20.53
2023-11-25T03:59:31.147Z,5.30
2023-11-25T04:01:59.339Z,8.20
2023-11-25T04:04:27.367Z,4.77
2023-11-25T04:06:55.337Z,3.00
2023-11-25T04:09:25.209Z,4.90
2023-11-25T04:11:53.088Z,2.47
2023-11-25T04:14:21.083Z,2.47
2023-11-25T04:16:49.023Z,2.43
2023-11-25T04:19:17.250Z,3.23
2023-11-25T04:21:47.231Z,2.53
2023-11-25T04:24:15.128Z,2.70
2023-11-25T04:26:44.557Z,1.57
2023-11-25T04:29:12.803Z,3.37
2023-11-25T04:31:40.776Z,10.00
2023-11-25T04:34:08.638Z,7.60
2023-11-25T04:36:36.513Z,3.03
2023-11-25T04:39:05.604Z,2.13
2023-11-25T04:41:33.439Z,3.13
2023-11-25T04:44:02.662Z,2.50
2023-11-25T04:46:31.373Z,6.17
2023-11-25T04:48:59.268Z,1.97
2023-11-25T04:51:27.080Z,1.20
2023-11-25T04:53:54.870Z,1.90
2023-11-25T04:56:23.198Z,4.17
2023-11-25T04:58:51.147Z,1.57
2023-11-25T05:01:20.530Z,1.67
2023-11-25T05:03:49.695Z,2.07
2023-11-25T05:06:17.686Z,4.60
2023-11-25T05:08:48.042Z,4.50
2023-11-25T05:11:15.999Z,1.20
2023-11-25T05:13:44.301Z,1.70
2023-11-25T05:16:12.409Z,3.23
2023-11-25T05:18:45.475Z,2.40
2023-11-25T05:21:13.311Z,4.90
2023-11-25T05:23:41.547Z,2.97
2023-11-25T05:26:10.231Z,2.73
2023-11-25T05:28:38.228Z,2.57
2023-11-25T05:31:06.291Z,3.57
2023-11-25T05:33:34.415Z,3.10
2023-11-25T05:36:03.776Z,2.73
2023-11-25T05:38:31.626Z,2.83
2023-11-25T05:40:59.668Z,3.83
2023-11-25T05:43:27.633Z,3.23
2023-11-25T05:45:55.579Z,2.67
2023-11-25T05:48:23.879Z,3.90
2023-11-25T05:50:51.714Z,3.60
2023-11-25T05:53:20.977Z,28.90
2023-11-25T05:55:48.872Z,49.60
2023-11-25T05:58:16.826Z,4.57
2023-11-25T06:00:44.710Z,1.77
2023-11-25T06:03:13.113Z,4.40
2023-11-25T06:05:40.975Z,5.50
2023-11-25T06:08:08.899Z,3.83
2023-11-25T06:10:38.111Z,8.50
2023-11-25T06:13:06.057Z,3.70
2023-11-25T06:15:33.873Z,3.47
2023-11-25T06:18:01.776Z,5.10
2023-11-25T06:20:30.456Z,1.80
2023-11-25T06:22:58.401Z,3.50
2023-11-25T06:25:27.493Z,3.50
2023-11-25T06:27:57.001Z,2.67
2023-11-25T06:30:25.667Z,5.20
2023-11-25T06:32:53.619Z,2.37
2023-11-25T06:35:24.348Z,1.90
2023-11-25T06:37:52.990Z,2.50
2023-11-25T06:40:21.527Z,3.10
2023-11-25T06:42:49.605Z,4.33
2023-11-25T06:45:19.394Z,13.93
2023-11-25T06:47:50.917Z,9.07
2023-11-25T06:50:19.592Z,5.13
2023-11-25T06:52:47.627Z,4.10
2023-11-25T06:55:15.861Z,31.20
2023-11-25T06:57:42.944Z,34.83
2023-11-25T07:00:12.465Z,128.53
2023-11-25T07:02:42.319Z,64.10
2023-11-25T07:05:10.528Z,62.10
2023-11-25T07:07:38.914Z,31.67
2023-11-25T07:10:10.864Z,8.40
2023-11-25T07:12:39.109Z,5.30
2023-11-25T07:15:07.944Z,3.13
2023-11-25T07:17:36.167Z,4.57
2023-11-25T07:20:06.824Z,5.37
2023-11-25T07:22:34.821Z,3.00
2023-11-25T07:25:03.325Z,4.33
2023-11-25T07:27:31.152Z,4.23
2023-11-25T07:30:02.225Z,28.80
2023-11-25T07:32:30.245Z,288.40
2023-11-25T07:34:58.165Z,189.10
2023-11-25T07:37:27.889Z,78.53
2023-11-25T07:39:55.824Z,46.17
2023-11-25T07:42:24.400Z,45.97
2023-11-25T07:44:52.654Z,43.47
2023-11-25T07:47:20.732Z,9.30
2023-11-25T07:49:48.751Z,19.60
2023-11-25T07:52:16.888Z,13.27
2023-11-25T07:54:46.476Z,6.73
2023-11-25T07:57:14.321Z,5.83
2023-11-25T07:59:42.236Z,4.73
2023-11-25T08:02:10.617Z,3.60
2023-11-25T08:04:38.842Z,4.73
2023-11-25T08:07:07.263Z,5.77
2023-11-25T08:09:35.097Z,4.50
2023-11-25T08:12:04.916Z,4.17
2023-11-25T08:14:32.893Z,6.00
2023-11-25T08:17:00.728Z,8.23
2023-11-25T08:19:28.836Z,5.00
2023-11-25T08:21:56.662Z,6.90
2023-11-25T08:24:24.538Z,16.57
2023-11-25T08:26:52.450Z,7.87
2023-11-25T08:29:21.852Z,4.97
2023-11-25T08:31:49.779Z,4.23
2023-11-25T08:34:17.777Z,4.60
2023-11-25T08:36:53.737Z,14.17
2023-11-25T08:39:26.571Z,6.00
2023-11-25T08:41:55.067Z,3.23
2023-11-25T08:44:24.369Z,4.53
2023-11-25T08:46:52.734Z,3.27
2023-11-25T08:49:23.143Z,2.83
2023-11-25T08:51:52.433Z,5.23
2023-11-25T08:54:20.881Z,8.83
2023-11-25T08:56:49.847Z,4.33
2023-11-25T08:59:21.192Z,6.17
2023-11-25T09:01:52.594Z,4.43
2023-11-25T09:04:21.662Z,4.50
2023-11-25T09:06:49.597Z,4.00
2023-11-25T09:09:18.914Z,4.03
2023-11-25T09:11:46.868Z,4.90
2023-11-25T09:14:17.416Z,5.37
2023-11-25T09:16:45.431Z,4.07
2023-11-25T09:19:14.776Z,5.87
2023-11-25T09:21:44.774Z,4.00
2023-11-25T09:24:12.588Z,3.90
2023-11-25T09:26:40.439Z,6.17
2023-11-25T09:29:08.327Z,4.03
2023-11-25T09:31:36.231Z,3.17
2023-11-25T09:34:04.514Z,4.67
2023-11-25T09:36:34.245Z,5.83
2023-11-25T09:39:04.820Z,3.77
2023-11-25T09:41:33.176Z,5.70
2023-11-25T09:44:05.232Z,5.17
2023-11-25T09:46:33.210Z,3.73
2023-11-25T09:49:01.264Z,5.47
2023-11-25T09:51:33.957Z,5.57
2023-11-25T09:54:05.296Z,6.40
2023-11-25T09:56:33.191Z,5.90
2023-11-25T09:59:01.047Z,3.93
2023-11-25T10:01:29.259Z,3.83
2023-11-25T10:03:57.287Z,4.17
2023-11-25T10:06:26.587Z,3.90
2023-11-25T10:08:54.494Z,4.60
2023-11-25T10:11:24.303Z,5.80
2023-11-25T10:13:52.508Z,4.10
2023-11-25T10:16:27.403Z,4.43
2023-11-25T10:18:55.327Z,3.00
2023-11-25T10:21:23.186Z,2.87
2023-11-25T10:23:51.399Z,2.97
2023-11-25T10:26:19.624Z,4.57
2023-11-25T10:28:49.115Z,3.90
2023-11-25T10:31:17.177Z,2.63
2023-11-25T10:33:45.148Z,4.40
2023-11-25T10:36:13.617Z,6.10
2023-11-25T10:38:43.213Z,3.47
2023-11-25T10:41:11.596Z,11.03
2023-11-25T10:43:39.525Z,12.03
2023-11-25T10:46:09.490Z,4.13
2023-11-25T10:48:38.665Z,4.63
2023-11-25T10:51:07.025Z,4.73
2023-11-25T10:53:35.458Z,3.90
2023-11-25T10:56:05.083Z,5.50
2023-11-25T10:58:33.292Z,4.40
2023-11-25T11:01:01.322Z,9.37
2023-11-25T11:03:55.787Z,4.80
2023-11-25T11:06:25.589Z,5.40
2023-11-25T11:08:53.804Z,26.57
2023-11-25T11:11:25.824Z,3.00
2023-11-25T11:13:57.065Z,5.70
2023-11-25T11:16:28.878Z,4.53
2023-11-25T11:18:58.890Z,24.47
2023-11-25T11:21:28.350Z,19.07
2023-11-25T11:23:56.232Z,7.97
2023-11-25T11:26:29.499Z,7.53
2023-11-25T11:29:05.125Z,5.97
2023-11-25T11:31:58.367Z,5.20
2023-11-25T11:34:28.764Z,4.07
2023-11-25T11:36:57.115Z,17.67
2023-11-25T11:39:35.053Z,24.20
2023-11-25T11:42:26.415Z,8.07
2023-11-25T11:44:59.744Z,5.03
2023-11-25T11:47:28.473Z,7.63
2023-11-25T11:49:57.864Z,9.57
2023-11-25T11:52:25.850Z,7.47
2023-11-25T11:54:53.772Z,6.90
2023-11-25T11:57:22.477Z,6.93
2023-11-25T12:00:00.919Z,4.57
2023-11-25T12:02:32.475Z,5.60
2023-11-25T12:05:02.800Z,5.17
2023-11-25T12:07:31.530Z,6.50
2023-11-25T12:09:59.638Z,9.93
2023-11-25T12:12:27.766Z,9.57
2023-11-25T12:14:55.819Z,7.77
2023-11-25T12:17:23.971Z,8.03
2023-11-25T12:19:53.933Z,6.17
2023-11-25T12:22:23.401Z,6.47
2023-11-25T12:24:51.382Z,6.00
2023-11-25T12:27:20.067Z,3.50
2023-11-25T12:29:50.558Z,8.23
2023-11-25T12:32:18.797Z,5.93
2023-11-25T12:34:47.206Z,6.80
2023-11-25T12:37:15.413Z,4.60
2023-11-25T12:39:44.803Z,6.47
2023-11-25T12:42:13.258Z,11.80
2023-11-25T12:44:51.230Z,7.83
2023-11-25T12:47:19.536Z,5.97
2023-11-25T12:49:48.655Z,8.60
2023-11-25T12:52:24.349Z,9.57
2023-11-25T12:54:54.090Z,5.57
2023-11-25T12:57:26.610Z,7.00
2023-11-25T12:59:56.623Z,2.67
2023-11-25T13:02:26.517Z,5.27
2023-11-25T13:04:55.645Z,5.07
2023-11-25T13:07:32.682Z,5.30
2023-11-25T13:10:02.056Z,4.60
2023-11-25T13:12:30.177Z,4.60
2023-11-25T13:14:58.252Z,6.30
2023-11-25T13:17:26.322Z,5.77
2023-11-25T13:19:54.643Z,2.73
2023-11-25T13:22:22.583Z,5.23
2023-11-25T13:24:50.590Z,3.73
2023-11-25T13:27:19.862Z,3.80
2023-11-25T13:29:47.698Z,6.67
2023-11-25T13:32:17.451Z,4.47
2023-11-25T13:34:45.569Z,3.90
2023-11-25T13:37:13.704Z,13.83
2023-11-25T13:39:41.909Z,5.23
2023-11-25T13:42:09.753Z,6.87
2023-11-25T13:44:40.500Z,3.73
2023-11-25T13:47:08.551Z,6.37
2023-11-25T13:49:36.727Z,6.60
2023-11-25T13:52:05.009Z,3.87
2023-11-25T13:54:32.897Z,5.97
2023-11-25T13:57:01.631Z,5.37
2023-11-25T13:59:29.627Z,6.47
2023-11-25T14:02:00.677Z,8.20
2023-11-25T14:04:28.690Z,8.00
2023-11-25T14:07:00.513Z,5.37
2023-11-25T14:09:28.475Z,6.80
2023-11-25T14:11:57.338Z,7.73
2023-11-25T14:14:26.375Z,7.10
2023-11-25T14:16:56.549Z,6.10
2023-11-25T14:19:27.041Z,8.93
2023-11-25T14:21:54.973Z,11.40
2023-11-25T14:24:23.648Z,7.57
2023-11-25T14:26:51.666Z,8.03
2023-11-25T14:29:19.910Z,9.67
2023-11-25T14:31:48.267Z,8.10
2023-11-25T14:34:16.822Z,5.17
2023-11-25T14:36:46.195Z,4.43
2023-11-25T14:39:19.706Z,10.67
2023-11-25T14:41:49.257Z,5.50
2023-11-25T14:44:17.580Z,5.03
2023-11-25T14:46:48.585Z,4.30
2023-11-25T14:49:16.890Z,5.23
2023-11-25T14:51:46.738Z,4.90
2023-11-25T14:54:15.199Z,3.47
2023-11-25T14:56:45.173Z,3.67
2023-11-25T14:59:16.959Z,3.90
2023-11-25T15:01:45.113Z,5.07
2023-11-25T15:04:15.227Z,8.40
2023-11-25T15:06:43.437Z,5.20
2023-11-25T15:09:13.128Z,5.80
2023-11-25T15:11:41.909Z,5.33
2023-11-25T15:14:10.133Z,16.00
2023-11-25T15:16:38.746Z,4.73
2023-11-25T15:19:07.716Z,6.07
2023-11-25T15:21:36.230Z,7.87
2023-11-25T15:24:04.870Z,8.27
2023-11-25T15:26:38.069Z,4.30
2023-11-25T15:29:07.234Z,4.57
2023-11-25T15:31:35.485Z,23.83
2023-11-25T15:34:03.517Z,11.33
2023-11-25T15:36:31.888Z,11.37
2023-11-25T15:38:59.834Z,8.87
2023-11-25T15:41:28.349Z,9.47
2023-11-25T15:43:57.778Z,7.47
2023-11-25T15:46:25.799Z,6.33
2023-11-25T15:48:53.600Z,4.47
2023-11-25T15:51:22.899Z,3.67
2023-11-25T15:53:51.355Z,5.90
2023-11-25T15:56:19.488Z,7.17
2023-11-25T15:58:47.868Z,3.53
2023-11-25T16:01:17.633Z,8.27
2023-11-25T16:03:45.538Z,7.27
2023-11-25T16:06:16.527Z,11.37
2023-11-25T16:08:44.639Z,38.20
2023-11-25T16:11:12.526Z,27.43
2023-11-25T16:13:40.478Z,27.70
2023-11-25T16:16:10.305Z,4.93
2023-11-25T16:18:40.696Z,4.07
2023-11-25T16:21:08.907Z,6.80
2023-11-25T16:23:39.528Z,4.07
2023-11-25T16:26:09.041Z,4.67
2023-11-25T16:28:37.221Z,7.87
2023-11-25T16:31:07.265Z,11.70
2023-11-25T16:33:39.493Z,7.93
2023-11-25T16:36:09.076Z,1.93
2023-11-25T16:38:36.976Z,7.57
2023-11-25T16:41:08.188Z,7.07
2023-11-25T16:43:37.432Z,11.63
2023-11-25T16:46:06.204Z,8.60
2023-11-25T16:48:43.789Z,6.57
2023-11-25T16:51:20.963Z,5.33
2023-11-25T16:53:48.787Z,7.30
2023-11-25T16:56:16.739Z,5.87
2023-11-25T16:58:44.618Z,7.23
2023-11-25T17:01:13.148Z,14.07
2023-11-25T17:03:41.104Z,4.40
2023-11-25T17:06:10.599Z,6.63
2023-11-25T17:08:40.332Z,4.43
2023-11-25T17:11:08.841Z,4.20
2023-11-25T17:13:36.825Z,3.80
2023-11-25T17:16:05.263Z,4.63
2023-11-25T17:18:33.544Z,5.00
2023-11-25T17:21:02.439Z,3.83
2023-11-25T17:23:30.404Z,4.77
2023-11-25T17:26:00.334Z,5.07
2023-11-25T17:28:28.560Z,4.77
2023-11-25T17:30:56.712Z,5.43
2023-11-25T17:33:24.706Z,4.97
2023-11-25T17:35:52.675Z,4.87
2023-11-25T17:38:20.570Z,4.73
2023-11-25T17:40:49.507Z,4.40
2023-11-25T17:43:19.888Z,2.23
2023-11-25T17:45:48.050Z,2.87
2023-11-25T17:48:15.979Z,2.77
2023-11-25T17:50:43.998Z,9.20
2023-11-25T17:53:14.657Z,19.80
2023-11-25T17:55:43.284Z,13.17
2023-11-25T17:58:11.406Z,18.40
2023-11-25T18:00:44.242Z,7.83
2023-11-25T18:03:12.540Z,11.20
2023-11-25T18:05:40.478Z,10.50
2023-11-25T18:08:08.634Z,31.40
2023-11-25T18:10:36.774Z,11.47
2023-11-25T18:13:04.642Z,68.13
2023-11-25T18:15:32.679Z,14.00
2023-11-25T18:18:01.916Z,50.53
2023-11-25T18:20:29.779Z,15.17
2023-11-25T18:22:57.588Z,23.77
2023-11-25T18:25:25.518Z,18.73
2023-11-25T18:27:54.278Z,6.73
2023-11-25T18:30:22.615Z,7.93
2023-11-25T18:32:50.477Z,5.13
2023-11-25T18:35:19.740Z,3.83
2023-11-25T18:37:48.457Z,4.53
2023-11-25T18:40:17.491Z,5.27
2023-11-25T18:42:45.608Z,3.40
2023-11-25T18:45:13.693Z,4.33
2023-11-25T18:47:41.890Z,3.80
2023-11-25T18:50:10.670Z,4.50
2023-11-25T18:52:41.066Z,2.80
2023-11-25T18:55:10.961Z,4.77
2023-11-25T18:57:38.860Z,1.83
2023-11-25T19:00:07.899Z,6.37
2023-11-25T19:02:35.858Z,5.43
2023-11-25T19:05:06.357Z,7.93
2023-11-25T19:07:34.204Z,6.13
2023-11-25T19:10:03.732Z,3.67
2023-11-25T19:12:32.014Z,3.10
2023-11-25T19:15:00.423Z,3.67
2023-11-25T19:17:28.456Z,8.03
2023-11-25T19:19:56.349Z,4.07
2023-11-25T19:22:25.139Z,2.57
2023-11-25T19:24:53.050Z,2.93
2023-11-25T19:27:22.829Z,13.10
2023-11-25T19:29:50.697Z,3.07
2023-11-25T19:32:18.593Z,4.13
2023-11-25T19:34:46.462Z,2.83
2023-11-25T19:37:14.395Z,4.70
2023-11-25T19:39:43.084Z,3.03
2023-11-25T19:42:10.944Z,1.90
2023-11-25T19:44:40.178Z,4.33
2023-11-25T19:47:08.723Z,1.93
2023-11-25T19:49:36.679Z,2.60
2023-11-25T19:52:04.930Z,2.67
2023-11-25T19:54:33.004Z,5.33
2023-11-25T19:57:01.038Z,1.90
2023-11-25T19:59:29.973Z,2.50
2023-11-25T20:01:59.423Z,3.47
2023-11-25T20:04:29.527Z,3.20
2023-11-25T20:06:59.983Z,8.33
2023-11-25T20:09:28.064Z,4.37
2023-11-25T20:11:59.015Z,8.53
2023-11-25T20:14:28.522Z,8.17
2023-11-25T20:16:58.204Z,15.33
2023-11-25T20:19:29.030Z,4.73
2023-11-25T20:21:57.555Z,2.50
2023-11-25T20:24:25.844Z,2.70
2023-11-25T20:26:54.721Z,5.20
2023-11-25T20:29:23.018Z,6.13
2023-11-25T20:31:50.945Z,3.80
2023-11-25T20:34:18.800Z,9.67
2023-11-25T20:36:48.116Z,8.03
2023-11-25T20:39:16.090Z,5.23
2023-11-25T20:41:44.119Z,4.23
2023-11-25T20:44:12.360Z,2.70
2023-11-25T20:46:40.910Z,3.43
2023-11-25T20:49:08.868Z,2.40
2023-11-25T20:51:36.893Z,1.60
2023-11-25T20:54:07.042Z,3.13
2023-11-25T20:56:34.987Z,1.73
2023-11-25T20:59:02.959Z,2.20
2023-11-25T21:01:31.607Z,3.10
2023-11-25T21:03:59.689Z,2.43
2023-11-25T21:06:27.921Z,2.77
2023-11-25T21:08:55.801Z,5.20
2023-11-25T21:11:25.062Z,30.27
2023-11-25T21:13:53.587Z,3.67
2023-11-25T21:16:21.593Z,2.60
2023-11-25T21:18:49.935Z,2.90
2023-11-25T21:21:18.700Z,1.87
2023-11-25T21:23:46.602Z,2.83
2023-11-25T21:26:15.157Z,1.53
2023-11-25T21:28:44.606Z,2.10
2023-11-25T21:31:13.097Z,1.90
2023-11-25T21:33:41.093Z,1.53
2023-11-25T21:36:09.172Z,2.10
2023-11-25T21:38:37.010Z,1.63
2023-11-25T21:41:06.576Z,1.93
2023-11-25T21:43:34.688Z,2.27
2023-11-25T21:46:06.979Z,1.70
2023-11-25T21:48:36.600Z,1.93
2023-11-25T21:51:05.188Z,2.77
2023-11-25T21:53:33.866Z,1.80
2023-11-25T21:56:02.209Z,1.50
2023-11-25T21:58:30.157Z,3.30
2023-11-25T22:00:58.084Z,2.20
2023-11-25T22:03:29.051Z,1.80
2023-11-25T22:05:56.972Z,1.67
2023-11-25T22:08:25.098Z,2.20
2023-11-25T22:10:53.067Z,2.80
2023-11-25T22:13:21.721Z,3.57
2023-11-25T22:15:50.067Z,2.17
2023-11-25T22:18:18.134Z,2.47
2023-11-25T22:20:47.504Z,1.70
2023-11-25T22:23:17.974Z,1.60
2023-11-25T22:25:55.832Z,2.00
2023-11-25T22:28:24.071Z,3.27
2023-11-25T22:30:53.832Z,2.10
2023-11-25T22:33:22.346Z,1.67
2023-11-25T22:35:59.226Z,2.67
2023-11-25T22:38:27.774Z,1.77
2023-11-25T22:40:57.133Z,2.03
2023-11-25T22:43:25.654Z,2.00
2023-11-25T22:45:54.462Z,1.20
2023-11-25T22:48:22.934Z,2.33
2023-11-25T22:50:52.660Z,4.13
2023-11-25T22:53:21.063Z,1.63
2023-11-25T22:55:49.237Z,1.67
2023-11-25T22:58:17.382Z,1.43
2023-11-25T23:00:53.025Z,2.37
2023-11-25T23:03:21.883Z,2.43
2023-11-25T23:05:50.535Z,1.87
2023-11-25T23:08:21.066Z,1.70
2023-11-25T23:10:49.357Z,9.63
2023-11-25T23:13:17.494Z,2.93
2023-11-25T23:15:55.000Z,1.67
2023-11-25T23:18:24.780Z,1.60
2023-11-25T23:20:53.073Z,2.00
2023-11-25T23:23:23.199Z,1.60
2023-11-25T23:25:51.489Z,5.40
2023-11-25T23:28:20.269Z,2.40
2023-11-25T23:30:48.516Z,1.30
2023-11-25T23:33:29.618Z,2.20
2023-11-25T23:35:58.319Z,3.47
2023-11-25T23:38:28.337Z,1.90
2023-11-25T23:41:02.775Z,2.53
2023-11-25T23:43:31.461Z,2.43
2023-11-25T23:45:59.835Z,4.90
2023-11-25T23:48:28.540Z,1.77
2023-11-25T23:50:57.070Z,1.70
2023-11-25T23:53:25.383Z,2.93
2023-11-25T23:55:55.209Z,2.13
2023-11-25T23:58:24.601Z,2.23
